Broadmoor, Louisiana
Current Conditions -  °F | °C
As of 5:35 PM on Wednesday 22 Oct 2014 (Local Time) from KVSH Reporting Station
Clear Clear  
Wind Chill: 77°   Ceiling: Unl
Heat Index: 78°   Visibility: 10mi
Dew Point: 50°   Wind: 5mph
Humidity: 39%   Direction: 10°N
Pressure: 30.03"   Gusts: NA
Location:  29.9521°N, 90.1034°W
Report Text: KVSH 222235Z AUTO 01004KT 10SM CLR 25/10 A3003 RMK AO1
Loading
Personal Weather Stations






























Interactive Weather Map
Tropical Storm Tracking
New forecast layout! Learn more

10-Day Weather Forecast

Advertisements
Track Severe Weather on mobile